createdAt,value
2018-02-07T00:01:51.694Z,-6.85
2018-02-07T00:04:17.442Z,-6.79
2018-02-07T00:06:43.215Z,-6.97
2018-02-07T00:09:08.957Z,-7.20
2018-02-07T00:11:34.715Z,-7.30
2018-02-07T00:14:00.465Z,-7.16
2018-02-07T00:16:26.229Z,-7.30
2018-02-07T00:18:51.975Z,-7.31
2018-02-07T00:21:17.742Z,-7.05
2018-02-07T00:23:43.485Z,-6.96
2018-02-07T00:26:09.242Z,-7.11
2018-02-07T00:28:34.995Z,-6.94
2018-02-07T00:31:00.755Z,-6.99
2018-02-07T00:33:26.528Z,-7.24
2018-02-07T00:35:52.345Z,-7.47
2018-02-07T00:38:18.091Z,-7.43
2018-02-07T00:40:43.844Z,-7.39
2018-02-07T00:43:09.598Z,-7.10
2018-02-07T00:45:35.343Z,-6.86
2018-02-07T00:48:01.107Z,-7.04
2018-02-07T00:50:26.847Z,-7.17
2018-02-07T00:52:52.614Z,-7.16
2018-02-07T00:55:18.354Z,-7.38
2018-02-07T00:57:44.110Z,-7.56
2018-02-07T01:00:09.854Z,-7.59
2018-02-07T01:02:35.606Z,-7.70
2018-02-07T01:05:01.363Z,-7.81
2018-02-07T01:07:27.127Z,-7.83
2018-02-07T01:09:52.870Z,-7.84
2018-02-07T01:12:18.622Z,-7.91
2018-02-07T01:14:44.388Z,-7.92
2018-02-07T01:17:10.123Z,-7.89
2018-02-07T01:19:36.089Z,-8.01
2018-02-07T01:22:01.828Z,-7.88
2018-02-07T01:24:27.594Z,-7.49
2018-02-07T01:26:53.350Z,-7.28
2018-02-07T01:29:19.115Z,-7.38
2018-02-07T01:31:44.867Z,-7.28
2018-02-07T01:34:10.626Z,-7.35
2018-02-07T01:36:36.403Z,-7.35
2018-02-07T01:39:02.167Z,-7.76
2018-02-07T01:41:27.919Z,-7.81
2018-02-07T01:43:53.682Z,-7.82
2018-02-07T01:46:19.433Z,-7.88
2018-02-07T01:48:45.178Z,-7.79
2018-02-07T01:51:10.932Z,-7.82
2018-02-07T01:53:36.687Z,-7.67
2018-02-07T01:56:02.438Z,-7.45
2018-02-07T01:58:28.223Z,-7.32
2018-02-07T02:00:53.970Z,-7.37
2018-02-07T02:03:19.734Z,-7.37
2018-02-07T02:05:45.478Z,-7.58
2018-02-07T02:08:11.235Z,-7.72
2018-02-07T02:10:36.999Z,-7.77
2018-02-07T02:13:02.754Z,-7.79
2018-02-07T02:15:28.498Z,-7.63
2018-02-07T02:17:54.247Z,-7.77
2018-02-07T02:20:20.011Z,-7.75
2018-02-07T02:22:45.764Z,-7.70
2018-02-07T02:25:11.514Z,-7.43
2018-02-07T02:27:37.262Z,-7.54
2018-02-07T02:30:03.043Z,-7.35
2018-02-07T02:32:28.790Z,-7.62
2018-02-07T02:34:54.558Z,-7.52
2018-02-07T02:37:20.324Z,-7.40
2018-02-07T02:39:46.087Z,-7.82
2018-02-07T02:42:11.843Z,-7.92
2018-02-07T02:44:37.611Z,-7.98
2018-02-07T02:47:03.355Z,-7.71
2018-02-07T02:49:29.115Z,-7.57
2018-02-07T02:51:54.907Z,-7.61
2018-02-07T02:54:20.688Z,-7.56
2018-02-07T02:56:46.447Z,-7.45
2018-02-07T02:59:12.195Z,-7.58
2018-02-07T03:01:37.974Z,-7.96
2018-02-07T03:04:03.726Z,-7.72
2018-02-07T03:06:29.491Z,-7.70
2018-02-07T03:08:55.247Z,-7.53
2018-02-07T03:11:20.998Z,-7.90
2018-02-07T03:13:46.750Z,-7.81
2018-02-07T03:16:12.525Z,-7.60
2018-02-07T03:18:38.272Z,-7.48
2018-02-07T03:21:04.040Z,-7.79
2018-02-07T03:23:29.799Z,-8.01
2018-02-07T03:25:55.555Z,-7.86
2018-02-07T03:28:21.312Z,-8.16
2018-02-07T03:30:47.081Z,-8.17
2018-02-07T03:33:12.842Z,-7.99
2018-02-07T03:35:38.576Z,-8.00
2018-02-07T03:38:04.357Z,-8.10
2018-02-07T03:40:30.110Z,-8.08
2018-02-07T03:42:55.872Z,-7.90
2018-02-07T03:45:21.610Z,-8.15
2018-02-07T03:47:47.366Z,-8.05
2018-02-07T03:50:13.114Z,-7.79
2018-02-07T03:52:38.875Z,-8.03
2018-02-07T03:55:04.619Z,-8.14
2018-02-07T03:57:30.379Z,-8.24
2018-02-07T03:59:56.131Z,-8.11
2018-02-07T04:02:21.915Z,-7.98
2018-02-07T04:04:47.663Z,-7.74
2018-02-07T04:07:13.431Z,-8.07
2018-02-07T04:09:39.182Z,-8.29
2018-02-07T04:12:04.947Z,-8.42
2018-02-07T04:14:30.688Z,-8.44
2018-02-07T04:16:56.450Z,-8.39
2018-02-07T04:19:22.199Z,-8.38
2018-02-07T04:21:47.955Z,-8.31
2018-02-07T04:24:13.702Z,-8.02
2018-02-07T04:26:39.478Z,-8.26
2018-02-07T04:29:05.234Z,-8.34
2018-02-07T04:31:30.987Z,-8.28
2018-02-07T04:33:56.747Z,-8.39
2018-02-07T04:36:22.498Z,-8.62
2018-02-07T04:38:48.270Z,-8.43
2018-02-07T04:41:14.015Z,-8.12
2018-02-07T04:43:39.780Z,-8.14
2018-02-07T04:46:05.518Z,-8.31
2018-02-07T04:48:31.278Z,-8.58
2018-02-07T04:50:57.018Z,-8.52
2018-02-07T04:53:22.798Z,-8.58
2018-02-07T04:55:48.554Z,-8.29
2018-02-07T04:58:14.323Z,-8.55
2018-02-07T05:00:40.082Z,-8.60
2018-02-07T05:03:05.849Z,-8.60
2018-02-07T05:05:31.599Z,-8.73
2018-02-07T05:07:57.360Z,-8.60
2018-02-07T05:10:23.118Z,-8.43
2018-02-07T05:12:48.902Z,-8.44
2018-02-07T05:15:14.643Z,-8.31
2018-02-07T05:17:40.399Z,-8.20
2018-02-07T05:20:06.155Z,-8.34
2018-02-07T05:22:31.903Z,-8.49
2018-02-07T05:24:57.674Z,-8.44
2018-02-07T05:27:23.418Z,-8.13
2018-02-07T05:29:49.187Z,-8.17
2018-02-07T05:32:14.942Z,-8.30
2018-02-07T05:34:40.746Z,-8.46
2018-02-07T05:37:06.503Z,-8.41
2018-02-07T05:39:32.254Z,-8.52
2018-02-07T05:41:58.009Z,-8.35
2018-02-07T05:44:23.765Z,-8.30
2018-02-07T05:46:49.503Z,-8.21
2018-02-07T05:49:15.274Z,-8.11
2018-02-07T05:51:41.018Z,-8.11
2018-02-07T05:54:06.850Z,-8.22
2018-02-07T05:56:32.594Z,-8.49
2018-02-07T05:58:58.363Z,-8.52
2018-02-07T06:01:24.116Z,-8.59
2018-02-07T06:03:49.887Z,-8.43
2018-02-07T06:06:15.651Z,-8.50
2018-02-07T06:08:41.390Z,-8.68
2018-02-07T06:11:07.149Z,-8.62
2018-02-07T06:13:32.913Z,-8.59
2018-02-07T06:15:58.679Z,-8.63
2018-02-07T06:18:24.414Z,-8.45
2018-02-07T06:20:50.195Z,-8.40
2018-02-07T06:23:15.942Z,-8.37
2018-02-07T06:25:41.709Z,-8.50
2018-02-07T06:28:07.454Z,-8.56
2018-02-07T06:30:33.231Z,-8.52
2018-02-07T06:32:58.987Z,-8.33
2018-02-07T06:35:24.774Z,-8.54
2018-02-07T06:37:50.526Z,-8.61
2018-02-07T06:40:16.296Z,-8.59
2018-02-07T06:42:42.063Z,-8.50
2018-02-07T06:45:07.852Z,-8.36
2018-02-07T06:47:33.590Z,-8.15
2018-02-07T06:49:59.413Z,-8.12
2018-02-07T06:52:25.190Z,-8.08
2018-02-07T06:54:50.944Z,-8.27
2018-02-07T06:57:16.714Z,-8.40
2018-02-07T06:59:42.477Z,-8.51
2018-02-07T07:02:08.226Z,-8.36
2018-02-07T07:04:33.986Z,-8.41
2018-02-07T07:06:59.747Z,-8.42
2018-02-07T07:09:25.503Z,-8.22
2018-02-07T07:11:51.264Z,-8.24
2018-02-07T07:14:17.015Z,-8.32
2018-02-07T07:16:42.798Z,-8.24
2018-02-07T07:19:08.546Z,-8.16
2018-02-07T07:21:34.311Z,-8.17
2018-02-07T07:24:00.072Z,-8.26
2018-02-07T07:26:25.843Z,-8.45
2018-02-07T07:28:51.603Z,-8.35
2018-02-07T07:31:17.359Z,-8.15
2018-02-07T07:33:43.099Z,-8.15
2018-02-07T07:36:08.864Z,-7.92
2018-02-07T07:38:34.618Z,-7.78
2018-02-07T07:41:00.383Z,-8.03
2018-02-07T07:43:26.127Z,-7.95
2018-02-07T07:45:51.906Z,-7.82
2018-02-07T07:48:17.670Z,-7.60
2018-02-07T07:50:43.450Z,-7.37
2018-02-07T07:53:09.200Z,-7.26
2018-02-07T07:55:34.966Z,-7.10
2018-02-07T07:58:00.742Z,-7.07
2018-02-07T08:00:26.499Z,-7.18
2018-02-07T08:02:52.264Z,-7.10
2018-02-07T08:05:18.028Z,-7.13
2018-02-07T08:07:43.788Z,-6.97
2018-02-07T08:10:09.541Z,-6.80
2018-02-07T08:12:35.314Z,-6.64
2018-02-07T08:15:01.057Z,-6.51
2018-02-07T08:17:26.831Z,-6.25
2018-02-07T08:19:52.578Z,-6.08
2018-02-07T08:22:18.356Z,-5.93
2018-02-07T08:24:44.110Z,-5.69
2018-02-07T08:27:09.873Z,-5.44
2018-02-07T08:29:35.626Z,-5.28
2018-02-07T08:32:01.394Z,-5.19
2018-02-07T08:34:27.142Z,-5.25
2018-02-07T08:36:52.918Z,-5.33
2018-02-07T08:39:18.666Z,-5.14
2018-02-07T08:41:44.434Z,-5.16
2018-02-07T08:44:10.202Z,-5.04
2018-02-07T08:46:35.958Z,-4.97
2018-02-07T08:49:01.736Z,-4.86
2018-02-07T08:51:27.486Z,-4.69
2018-02-07T08:53:53.255Z,-4.61
2018-02-07T08:56:19.000Z,-4.51
2018-02-07T08:58:44.775Z,-4.45
2018-02-07T09:01:10.532Z,-4.35
2018-02-07T09:03:36.287Z,-4.36
2018-02-07T09:06:02.093Z,-4.28
2018-02-07T09:08:27.844Z,-4.19
2018-02-07T09:10:53.609Z,-4.10
2018-02-07T09:13:19.379Z,-4.02
2018-02-07T09:15:45.122Z,-3.88
2018-02-07T09:18:10.894Z,-3.84
2018-02-07T09:20:36.677Z,-3.69
2018-02-07T09:23:02.431Z,-3.58
2018-02-07T09:25:28.174Z,-3.41
2018-02-07T09:27:53.943Z,-3.33
2018-02-07T09:30:19.695Z,-3.22
2018-02-07T09:32:45.467Z,-3.29
2018-02-07T09:35:11.217Z,-2.92
2018-02-07T09:37:36.979Z,-2.80
2018-02-07T09:40:02.743Z,-2.70
2018-02-07T09:42:28.498Z,-2.65
2018-02-07T09:44:54.287Z,-2.46
2018-02-07T09:47:20.024Z,-2.12
2018-02-07T09:49:45.784Z,-1.82
2018-02-07T09:52:11.535Z,-1.76
2018-02-07T09:54:37.312Z,-1.76
2018-02-07T09:57:03.059Z,-1.96
2018-02-07T09:59:28.823Z,-2.06
2018-02-07T10:01:54.578Z,-1.82
2018-02-07T10:04:20.334Z,-1.98
2018-02-07T10:06:46.090Z,-2.09
2018-02-07T10:09:11.855Z,-1.58
2018-02-07T10:11:37.604Z,-1.30
2018-02-07T10:14:03.378Z,-1.16
2018-02-07T10:16:29.122Z,-1.41
2018-02-07T10:18:54.906Z,-1.27
2018-02-07T10:21:20.652Z,-0.92
2018-02-07T10:23:46.418Z,-0.79
2018-02-07T10:26:12.174Z,-0.72
2018-02-07T10:28:37.925Z,-0.50
2018-02-07T10:31:03.703Z,-1.37
2018-02-07T10:33:29.453Z,-0.83
2018-02-07T10:35:55.218Z,-0.88
2018-02-07T10:38:20.986Z,-1.26
2018-02-07T10:40:46.747Z,-0.82
2018-02-07T10:43:12.498Z,-0.23
2018-02-07T10:45:38.266Z,-0.45
2018-02-07T10:48:04.012Z,-0.49
2018-02-07T10:50:29.783Z,-0.76
2018-02-07T10:52:55.530Z,-0.40
2018-02-07T10:55:21.315Z,-0.33
2018-02-07T10:57:47.060Z,-0.39
2018-02-07T11:00:12.819Z,-0.43
2018-02-07T11:02:38.571Z,0.17
2018-02-07T11:05:04.384Z,-0.49
2018-02-07T11:07:30.134Z,-0.49
2018-02-07T11:09:55.895Z,-0.43
2018-02-07T11:12:21.650Z,-0.51
2018-02-07T11:14:47.398Z,-0.31
2018-02-07T11:17:13.165Z,-0.21
2018-02-07T11:19:38.922Z,-0.56
2018-02-07T11:22:04.684Z,0.06
2018-02-07T11:24:30.423Z,0.05
2018-02-07T11:26:56.178Z,0.20
2018-02-07T11:29:21.918Z,0.13
2018-02-07T11:31:47.683Z,0.13
2018-02-07T11:34:13.431Z,0.25
2018-02-07T11:36:39.210Z,0.36
2018-02-07T11:39:04.967Z,-0.02
2018-02-07T11:41:30.744Z,0.26
2018-02-07T11:43:56.495Z,0.33
2018-02-07T11:46:22.249Z,0.85
2018-02-07T11:48:48.020Z,0.61
2018-02-07T11:51:13.769Z,0.78
2018-02-07T11:53:39.524Z,0.44
2018-02-07T11:56:05.294Z,-0.37
2018-02-07T11:58:31.047Z,-0.11
2018-02-07T12:00:56.819Z,0.20
2018-02-07T12:03:22.567Z,-0.02
2018-02-07T12:05:48.315Z,-0.53
2018-02-07T12:08:14.087Z,0.03
2018-02-07T12:10:39.839Z,0.28
2018-02-07T12:13:05.598Z,0.50
2018-02-07T12:15:31.368Z,1.19
2018-02-07T12:17:57.157Z,0.79
2018-02-07T12:20:22.948Z,0.24
2018-02-07T12:22:48.706Z,0.70
2018-02-07T12:25:14.466Z,0.67
2018-02-07T12:27:40.254Z,0.88
2018-02-07T12:30:06.033Z,1.20
2018-02-07T12:32:31.793Z,1.18
2018-02-07T12:34:57.548Z,0.55
2018-02-07T12:37:23.310Z,0.72
2018-02-07T12:39:49.055Z,0.60
2018-02-07T12:42:14.806Z,0.45
2018-02-07T12:44:40.563Z,0.76
2018-02-07T12:47:06.319Z,0.15
2018-02-07T12:49:32.051Z,0.87
2018-02-07T12:51:57.806Z,1.15
2018-02-07T12:54:23.551Z,1.02
2018-02-07T12:56:49.315Z,0.92
2018-02-07T12:59:15.063Z,0.72
2018-02-07T13:01:40.863Z,0.69
2018-02-07T13:04:06.613Z,0.49
2018-02-07T13:06:33.150Z,0.30
2018-02-07T13:08:58.906Z,0.41
2018-02-07T13:11:24.654Z,0.64
2018-02-07T13:13:50.468Z,0.52
2018-02-07T13:16:16.174Z,0.77
2018-02-07T13:18:41.906Z,0.56
2018-02-07T13:21:07.643Z,0.28
2018-02-07T13:23:33.378Z,0.30
2018-02-07T13:25:59.114Z,0.06
2018-02-07T13:28:24.859Z,-0.03
2018-02-07T13:30:50.602Z,0.52
2018-02-07T13:33:16.374Z,0.23
2018-02-07T13:35:42.108Z,0.18
2018-02-07T13:38:07.868Z,0.03
2018-02-07T13:40:33.616Z,0.08
2018-02-07T13:42:59.394Z,0.11
2018-02-07T13:45:25.152Z,0.27
2018-02-07T13:47:50.902Z,0.08
2018-02-07T13:50:16.663Z,0.03
2018-02-07T13:52:42.401Z,0.10
2018-02-07T13:55:08.159Z,-0.14
2018-02-07T13:57:33.914Z,-0.26
2018-02-07T13:59:59.670Z,-0.30
2018-02-07T14:02:25.423Z,-0.32
2018-02-07T14:04:51.167Z,-0.32
2018-02-07T14:07:16.918Z,-0.38
2018-02-07T14:09:42.682Z,-0.33
2018-02-07T14:12:08.427Z,-0.29
2018-02-07T14:14:34.181Z,-0.33
2018-02-07T14:16:59.934Z,-0.16
2018-02-07T14:19:25.701Z,-0.25
2018-02-07T14:21:51.440Z,-0.30
2018-02-07T14:24:17.199Z,-0.34
2018-02-07T14:26:42.946Z,-0.37
2018-02-07T14:29:08.688Z,-0.36
2018-02-07T14:31:34.446Z,-0.15
2018-02-07T14:34:00.191Z,-0.27
2018-02-07T14:36:26.007Z,-0.21
2018-02-07T14:38:51.746Z,-0.32
2018-02-07T14:41:17.497Z,-0.47
2018-02-07T14:43:43.226Z,-0.37
2018-02-07T14:46:08.971Z,-0.38
2018-02-07T14:48:34.715Z,-0.42
2018-02-07T14:51:00.466Z,-0.39
2018-02-07T14:53:26.198Z,-0.38
2018-02-07T14:55:51.943Z,-0.33
2018-02-07T14:58:17.704Z,-0.42
2018-02-07T15:00:43.454Z,-0.51
2018-02-07T15:03:09.202Z,-0.55
2018-02-07T15:05:34.945Z,-0.55
2018-02-07T15:08:00.691Z,-0.61
2018-02-07T15:10:26.431Z,-0.52
2018-02-07T15:12:52.175Z,-0.59
2018-02-07T15:15:17.927Z,-0.66
2018-02-07T15:17:43.678Z,-0.69
2018-02-07T15:20:09.431Z,-0.70
2018-02-07T15:22:35.174Z,-0.69
2018-02-07T15:25:00.929Z,-0.70
2018-02-07T15:27:26.678Z,-0.71
2018-02-07T15:29:52.419Z,-0.78
2018-02-07T15:32:18.192Z,-0.84
2018-02-07T15:34:43.931Z,-0.81
2018-02-07T15:37:09.681Z,-0.85
2018-02-07T15:39:35.435Z,-0.96
2018-02-07T15:42:01.187Z,-0.94
2018-02-07T15:44:26.934Z,-0.98
2018-02-07T15:46:52.698Z,-0.93
2018-02-07T15:49:18.445Z,-1.00
2018-02-07T15:51:44.202Z,-1.01
2018-02-07T15:54:09.942Z,-0.94
2018-02-07T15:56:35.706Z,-1.07
2018-02-07T15:59:01.456Z,-1.12
2018-02-07T16:01:27.199Z,-1.18
2018-02-07T16:03:52.955Z,-1.21
2018-02-07T16:06:18.686Z,-1.20
2018-02-07T16:08:44.432Z,-1.21
2018-02-07T16:11:10.167Z,-1.26
2018-02-07T16:13:35.939Z,-1.35
2018-02-07T16:16:01.718Z,-1.37
2018-02-07T16:18:27.472Z,-1.45
2018-02-07T16:20:53.219Z,-1.46
2018-02-07T16:23:18.975Z,-1.48
2018-02-07T16:25:44.723Z,-1.59
2018-02-07T16:28:10.467Z,-1.62
2018-02-07T16:30:36.250Z,-1.66
2018-02-07T16:33:02.012Z,-1.71
2018-02-07T16:35:27.810Z,-1.80
2018-02-07T16:37:53.539Z,-1.90
2018-02-07T16:40:19.300Z,-1.84
2018-02-07T16:42:45.048Z,-1.26
2018-02-07T16:45:10.904Z,-1.16
2018-02-07T16:47:36.574Z,-1.21
2018-02-07T16:50:02.395Z,-1.29
2018-02-07T16:52:28.152Z,-1.32
2018-02-07T16:54:53.895Z,-1.37
2018-02-07T16:57:19.634Z,-1.26
2018-02-07T16:59:45.403Z,-1.80
2018-02-07T17:02:11.155Z,-2.06
2018-02-07T17:04:36.934Z,-2.28
2018-02-07T17:07:02.695Z,-2.22
2018-02-07T17:09:28.458Z,-2.48
2018-02-07T17:11:54.215Z,-2.20
2018-02-07T17:14:19.982Z,-1.64
2018-02-07T17:16:45.734Z,-2.24
2018-02-07T17:19:11.491Z,-2.61
2018-02-07T17:21:37.242Z,-2.86
2018-02-07T17:24:03.020Z,-2.98
2018-02-07T17:26:28.795Z,-3.04
2018-02-07T17:28:54.563Z,-3.01
2018-02-07T17:31:20.323Z,-2.92
2018-02-07T17:33:46.086Z,-2.79
2018-02-07T17:36:11.870Z,-2.79
2018-02-07T17:38:37.642Z,-2.97
2018-02-07T17:41:03.419Z,-3.04
2018-02-07T17:43:29.234Z,-3.11
2018-02-07T17:45:55.016Z,-3.17
2018-02-07T17:48:20.870Z,-3.14
2018-02-07T17:50:46.678Z,-3.12
2018-02-07T17:53:12.573Z,-3.15
2018-02-07T17:55:38.339Z,-3.25
2018-02-07T17:58:04.110Z,-3.30
2018-02-07T18:00:29.915Z,-3.25
2018-02-07T18:02:55.725Z,-3.30
2018-02-07T18:05:21.493Z,-3.35
2018-02-07T18:07:47.254Z,-3.48
2018-02-07T18:10:12.994Z,-3.52
2018-02-07T18:12:38.762Z,-3.52
2018-02-07T18:15:04.524Z,-3.48
2018-02-07T18:17:30.333Z,-3.53
2018-02-07T18:19:56.102Z,-2.97
2018-02-07T18:22:21.942Z,-2.75
2018-02-07T18:24:47.741Z,-2.65
2018-02-07T18:27:13.689Z,-2.49
2018-02-07T18:29:39.471Z,-2.65
2018-02-07T18:32:05.378Z,-2.66
2018-02-07T18:34:31.146Z,-2.74
2018-02-07T18:36:57.121Z,-2.86
2018-02-07T18:39:22.960Z,-2.87
2018-02-07T18:41:48.759Z,-3.02
2018-02-07T18:44:14.549Z,-2.85
2018-02-07T18:46:40.480Z,-3.17
2018-02-07T18:49:06.287Z,-3.64
2018-02-07T18:51:32.129Z,-3.67
2018-02-07T18:53:57.940Z,-3.72
2018-02-07T18:56:23.713Z,-3.79
2018-02-07T18:58:49.575Z,-3.51
2018-02-07T19:01:15.421Z,-3.31
2018-02-07T19:03:41.838Z,-3.31
2018-02-07T19:06:07.641Z,-3.33
2018-02-07T19:08:33.469Z,-3.44
2018-02-07T19:10:59.284Z,-3.50
2018-02-07T19:13:25.079Z,-3.66
2018-02-07T19:15:50.892Z,-3.54
2018-02-07T19:18:16.669Z,-3.66
2018-02-07T19:20:42.474Z,-3.69
2018-02-07T19:23:08.346Z,-3.94
2018-02-07T19:25:34.235Z,-4.10
2018-02-07T19:27:59.982Z,-3.96
2018-02-07T19:30:25.759Z,-3.80
2018-02-07T19:32:51.532Z,-3.77
2018-02-07T19:35:17.314Z,-3.91
2018-02-07T19:37:43.180Z,-3.98
2018-02-07T19:40:09.016Z,-3.89
2018-02-07T19:42:34.820Z,-3.86
2018-02-07T19:45:00.700Z,-4.08
2018-02-07T19:47:26.468Z,-4.17
2018-02-07T19:49:52.261Z,-4.04
2018-02-07T19:52:18.067Z,-4.06
2018-02-07T19:54:43.854Z,-4.17
2018-02-07T19:57:09.687Z,-4.15
2018-02-07T19:59:35.479Z,-4.18
2018-02-07T20:02:01.324Z,-4.20
2018-02-07T20:04:27.108Z,-4.18
2018-02-07T20:06:52.868Z,-4.16
2018-02-07T20:09:18.632Z,-4.18
2018-02-07T20:11:44.390Z,-4.26
2018-02-07T20:14:10.155Z,-4.35
2018-02-07T20:16:35.926Z,-4.71
2018-02-07T20:19:02.583Z,-4.61
2018-02-07T20:21:28.346Z,-4.63
2018-02-07T20:23:54.108Z,-4.94
2018-02-07T20:26:19.884Z,-4.84
2018-02-07T20:28:45.693Z,-4.65
2018-02-07T20:31:11.488Z,-4.61
2018-02-07T20:33:37.247Z,-4.64
2018-02-07T20:36:03.021Z,-4.65
2018-02-07T20:38:28.779Z,-4.89
2018-02-07T20:40:54.551Z,-4.77
2018-02-07T20:43:20.323Z,-4.59
2018-02-07T20:45:46.074Z,-4.59
2018-02-07T20:48:11.848Z,-4.60
2018-02-07T20:50:37.601Z,-4.64
2018-02-07T20:53:03.352Z,-4.69
2018-02-07T20:55:29.117Z,-4.75
2018-02-07T20:57:54.931Z,-4.94
2018-02-07T21:00:20.694Z,-5.03
2018-02-07T21:02:46.457Z,-5.01
2018-02-07T21:05:12.232Z,-5.21
2018-02-07T21:07:37.995Z,-5.01
2018-02-07T21:10:03.779Z,-4.85
2018-02-07T21:12:29.567Z,-4.94
2018-02-07T21:14:55.342Z,-5.27
2018-02-07T21:17:21.136Z,-5.33
2018-02-07T21:19:46.941Z,-5.13
2018-02-07T21:22:12.721Z,-5.08
2018-02-07T21:24:38.491Z,-5.05
2018-02-07T21:27:04.254Z,-5.28
2018-02-07T21:29:30.017Z,-5.54
2018-02-07T21:31:55.762Z,-5.37
2018-02-07T21:34:21.541Z,-5.29
2018-02-07T21:36:47.319Z,-5.21
2018-02-07T21:39:13.105Z,-5.21
2018-02-07T21:41:38.871Z,-5.18
2018-02-07T21:44:04.656Z,-5.19
2018-02-07T21:46:30.447Z,-5.19
2018-02-07T21:48:56.214Z,-5.30
2018-02-07T21:51:21.979Z,-5.29
2018-02-07T21:53:47.750Z,-5.27
2018-02-07T21:56:13.495Z,-5.26
2018-02-07T21:58:39.278Z,-5.24
2018-02-07T22:01:05.053Z,-5.35
2018-02-07T22:03:30.823Z,-5.29
2018-02-07T22:05:56.579Z,-5.05
2018-02-07T22:08:22.346Z,-4.96
2018-02-07T22:10:48.107Z,-4.85
2018-02-07T22:13:13.894Z,-4.89
2018-02-07T22:15:39.644Z,-4.83
2018-02-07T22:18:05.426Z,-4.67
2018-02-07T22:20:31.194Z,-4.52
2018-02-07T22:22:57.002Z,-4.27
2018-02-07T22:25:22.770Z,-4.11
2018-02-07T22:27:48.523Z,-4.22
2018-02-07T22:30:14.319Z,-4.39
2018-02-07T22:32:40.155Z,-4.36
2018-02-07T22:35:05.926Z,-4.08
2018-02-07T22:37:31.692Z,-3.87
2018-02-07T22:39:57.459Z,-3.77
2018-02-07T22:42:23.237Z,-3.76
2018-02-07T22:44:48.991Z,-3.73
2018-02-07T22:47:14.758Z,-3.70
2018-02-07T22:49:40.542Z,-3.67
2018-02-07T22:52:06.320Z,-3.68
2018-02-07T22:54:32.076Z,-3.72
2018-02-07T22:56:57.835Z,-3.94
2018-02-07T22:59:23.602Z,-3.83
2018-02-07T23:01:49.377Z,-3.99
2018-02-07T23:04:15.142Z,-4.34
2018-02-07T23:06:40.908Z,-4.41
2018-02-07T23:09:06.667Z,-4.42
2018-02-07T23:11:32.431Z,-4.39
2018-02-07T23:13:58.186Z,-4.62
2018-02-07T23:16:23.954Z,-4.59
2018-02-07T23:18:49.736Z,-4.57
2018-02-07T23:21:15.552Z,-4.76
2018-02-07T23:23:41.307Z,-5.10
2018-02-07T23:26:07.059Z,-5.04
2018-02-07T23:28:32.820Z,-4.90
2018-02-07T23:30:58.599Z,-4.71
2018-02-07T23:33:24.359Z,-4.72
2018-02-07T23:35:50.131Z,-4.79
2018-02-07T23:38:15.911Z,-4.85
2018-02-07T23:40:41.670Z,-5.07
2018-02-07T23:43:07.418Z,-5.21
2018-02-07T23:45:33.195Z,-5.17
2018-02-07T23:47:58.953Z,-4.92
2018-02-07T23:50:24.720Z,-4.88
2018-02-07T23:52:50.467Z,-5.03
2018-02-07T23:55:16.236Z,-5.16
2018-02-07T23:57:41.986Z,-5.30
